sensor_id;sensor_type;location;lat;lon;timestamp;P1;P2;P0
69350;PMS7003;57106;51.446;-2.606;2023-05-10T00:03:23;22;19;
69350;PMS7003;57106;51.446;-2.606;2023-05-10T00:34:52;27;23;
69350;PMS7003;57106;51.446;-2.606;2023-05-10T00:37:18;23;23;
69350;PMS7003;57106;51.446;-2.606;2023-05-10T00:39:43;22;21;
69350;PMS7003;57106;51.446;-2.606;2023-05-10T00:42:08;26;23;
69350;PMS7003;57106;51.446;-2.606;2023-05-10T00:44:33;23;21;
69350;PMS7003;57106;51.446;-2.606;2023-05-10T00:46:58;22;20;
69350;PMS7003;57106;51.446;-2.606;2023-05-10T00:49:24;20;20;
69350;PMS7003;57106;51.446;-2.606;2023-05-10T00:51:49;24;24;
69350;PMS7003;57106;51.446;-2.606;2023-05-10T00:54:15;24;22;
69350;PMS7003;57106;51.446;-2.606;2023-05-10T00:56:40;24;18;
69350;PMS7003;57106;51.446;-2.606;2023-05-10T00:59:06;23;20;
69350;PMS7003;57106;51.446;-2.606;2023-05-10T01:01:31;20;19;
69350;PMS7003;57106;51.446;-2.606;2023-05-10T01:03:56;26;26;
69350;PMS7003;57106;51.446;-2.606;2023-05-10T01:06:22;23;21;
69350;PMS7003;57106;51.446;-2.606;2023-05-10T01:08:47;23;21;
69350;PMS7003;57106;51.446;-2.606;2023-05-10T01:11:12;24;19;
69350;PMS7003;57106;51.446;-2.606;2023-05-10T01:13:38;21;20;
69350;PMS7003;57106;51.446;-2.606;2023-05-10T01:16:03;23;21;
69350;PMS7003;57106;51.446;-2.606;2023-05-10T01:18:28;21;21;
69350;PMS7003;57106;51.446;-2.606;2023-05-10T01:20:56;25;21;
69350;PMS7003;57106;51.446;-2.606;2023-05-10T01:23:24;25;23;
69350;PMS7003;57106;51.446;-2.606;2023-05-10T01:25:52;27;24;
69350;PMS7003;57106;51.446;-2.606;2023-05-10T01:28:17;26;21;
69350;PMS7003;57106;51.446;-2.606;2023-05-10T01:33:01;25;24;
69350;PMS7003;57106;51.446;-2.606;2023-05-10T01:35:28;29;25;
69350;PMS7003;57106;51.446;-2.606;2023-05-10T01:37:54;27;24;
69350;PMS7003;57106;51.446;-2.606;2023-05-10T01:40:25;24;23;
69350;PMS7003;57106;51.446;-2.606;2023-05-10T01:42:43;22;22;
69350;PMS7003;57106;51.446;-2.606;2023-05-10T01:45:16;22;22;
69350;PMS7003;57106;51.446;-2.606;2023-05-10T01:47:33;25;20;
69350;PMS7003;57106;51.446;-2.606;2023-05-10T01:49:58;24;24;
69350;PMS7003;57106;51.446;-2.606;2023-05-10T01:52:25;25;23;
69350;PMS7003;57106;51.446;-2.606;2023-05-10T01:54:49;24;23;
69350;PMS7003;57106;51.446;-2.606;2023-05-10T01:57:14;26;24;
69350;PMS7003;57106;51.446;-2.606;2023-05-10T01:59:40;23;23;
69350;PMS7003;57106;51.446;-2.606;2023-05-10T02:02:05;23;23;
69350;PMS7003;57106;51.446;-2.606;2023-05-10T02:04:30;27;23;
69350;PMS7003;57106;51.446;-2.606;2023-05-10T02:06:55;18;16;
69350;PMS7003;57106;51.446;-2.606;2023-05-10T02:09:20;21;18;
69350;PMS7003;57106;51.446;-2.606;2023-05-10T02:11:46;17;16;
69350;PMS7003;57106;51.446;-2.606;2023-05-10T02:14:11;18;17;
69350;PMS7003;57106;51.446;-2.606;2023-05-10T02:16:37;24;17;
69350;PMS7003;57106;51.446;-2.606;2023-05-10T02:19:02;19;18;
69350;PMS7003;57106;51.446;-2.606;2023-05-10T02:21:27;23;20;
69350;PMS7003;57106;51.446;-2.606;2023-05-10T02:23:53;21;17;
69350;PMS7003;57106;51.446;-2.606;2023-05-10T02:26:19;20;19;
69350;PMS7003;57106;51.446;-2.606;2023-05-10T02:28:44;18;17;
69350;PMS7003;57106;51.446;-2.606;2023-05-10T02:31:10;18;17;
69350;PMS7003;57106;51.446;-2.606;2023-05-10T02:33:34;16;15;
69350;PMS7003;57106;51.446;-2.606;2023-05-10T02:36:00;22;20;
69350;PMS7003;57106;51.446;-2.606;2023-05-10T02:38:25;16;16;
69350;PMS7003;57106;51.446;-2.606;2023-05-10T02:40:51;20;18;
69350;PMS7003;57106;51.446;-2.606;2023-05-10T02:43:17;15;15;
69350;PMS7003;57106;51.446;-2.606;2023-05-10T02:45:42;16;15;
69350;PMS7003;57106;51.446;-2.606;2023-05-10T02:48:08;15;14;
69350;PMS7003;57106;51.446;-2.606;2023-05-10T02:50:33;16;16;
69350;PMS7003;57106;51.446;-2.606;2023-05-10T02:53:00;16;15;
69350;PMS7003;57106;51.446;-2.606;2023-05-10T02:55:25;17;15;
69350;PMS7003;57106;51.446;-2.606;2023-05-10T02:57:49;15;14;
69350;PMS7003;57106;51.446;-2.606;2023-05-10T03:00:13;13;13;
69350;PMS7003;57106;51.446;-2.606;2023-05-10T03:02:38;19;17;
69350;PMS7003;57106;51.446;-2.606;2023-05-10T03:05:04;19;16;
69350;PMS7003;57106;51.446;-2.606;2023-05-10T03:07:29;17;15;
69350;PMS7003;57106;51.446;-2.606;2023-05-10T03:09:55;17;14;
69350;PMS7003;57106;51.446;-2.606;2023-05-10T03:12:25;14;14;
69350;PMS7003;57106;51.446;-2.606;2023-05-10T03:14:48;18;14;
69350;PMS7003;57106;51.446;-2.606;2023-05-10T03:17:11;18;18;
69350;PMS7003;57106;51.446;-2.606;2023-05-10T03:19:36;17;16;
69350;PMS7003;57106;51.446;-2.606;2023-05-10T03:22:04;17;17;
69350;PMS7003;57106;51.446;-2.606;2023-05-10T03:24:26;20;16;
69350;PMS7003;57106;51.446;-2.606;2023-05-10T03:26:51;15;14;
69350;PMS7003;57106;51.446;-2.606;2023-05-10T03:29:16;15;15;
69350;PMS7003;57106;51.446;-2.606;2023-05-10T03:31:41;22;19;
69350;PMS7003;57106;51.446;-2.606;2023-05-10T03:34:08;20;13;
69350;PMS7003;57106;51.446;-2.606;2023-05-10T03:36:32;14;11;
69350;PMS7003;57106;51.446;-2.606;2023-05-10T03:38:58;15;14;
69350;PMS7003;57106;51.446;-2.606;2023-05-10T03:41:23;19;14;
69350;PMS7003;57106;51.446;-2.606;2023-05-10T03:43:48;14;13;
69350;PMS7003;57106;51.446;-2.606;2023-05-10T03:46:13;18;13;
69350;PMS7003;57106;51.446;-2.606;2023-05-10T03:48:39;16;14;
69350;PMS7003;57106;51.446;-2.606;2023-05-10T03:51:04;19;18;
69350;PMS7003;57106;51.446;-2.606;2023-05-10T03:53:29;21;15;
69350;PMS7003;57106;51.446;-2.606;2023-05-10T03:55:57;15;14;
69350;PMS7003;57106;51.446;-2.606;2023-05-10T03:58:20;21;19;
69350;PMS7003;57106;51.446;-2.606;2023-05-10T04:00:46;15;13;
69350;PMS7003;57106;51.446;-2.606;2023-05-10T04:03:12;18;15;
69350;PMS7003;57106;51.446;-2.606;2023-05-10T04:05:37;17;13;
69350;PMS7003;57106;51.446;-2.606;2023-05-10T04:08:03;20;18;
69350;PMS7003;57106;51.446;-2.606;2023-05-10T04:10:29;16;15;
69350;PMS7003;57106;51.446;-2.606;2023-05-10T04:12:54;17;13;
69350;PMS7003;57106;51.446;-2.606;2023-05-10T04:15:20;14;13;
69350;PMS7003;57106;51.446;-2.606;2023-05-10T04:17:45;15;14;
69350;PMS7003;57106;51.446;-2.606;2023-05-10T04:20:11;21;12;
69350;PMS7003;57106;51.446;-2.606;2023-05-10T04:22:36;16;13;
69350;PMS7003;57106;51.446;-2.606;2023-05-10T04:25:02;13;12;
69350;PMS7003;57106;51.446;-2.606;2023-05-10T04:27:27;15;14;
69350;PMS7003;57106;51.446;-2.606;2023-05-10T04:29:52;15;15;
69350;PMS7003;57106;51.446;-2.606;2023-05-10T04:32:17;15;14;
69350;PMS7003;57106;51.446;-2.606;2023-05-10T04:34:42;15;13;
69350;PMS7003;57106;51.446;-2.606;2023-05-10T04:37:07;16;14;
69350;PMS7003;57106;51.446;-2.606;2023-05-10T04:39:32;16;13;
69350;PMS7003;57106;51.446;-2.606;2023-05-10T04:41:57;16;15;
69350;PMS7003;57106;51.446;-2.606;2023-05-10T04:44:23;13;11;
69350;PMS7003;57106;51.446;-2.606;2023-05-10T04:46:48;15;13;
69350;PMS7003;57106;51.446;-2.606;2023-05-10T04:49:14;13;13;
69350;PMS7003;57106;51.446;-2.606;2023-05-10T04:51:39;13;11;
69350;PMS7003;57106;51.446;-2.606;2023-05-10T04:54:04;16;13;
69350;PMS7003;57106;51.446;-2.606;2023-05-10T04:56:30;19;14;
69350;PMS7003;57106;51.446;-2.606;2023-05-10T04:58:55;14;12;
69350;PMS7003;57106;51.446;-2.606;2023-05-10T05:01:21;17;14;
69350;PMS7003;57106;51.446;-2.606;2023-05-10T05:03:46;16;13;
69350;PMS7003;57106;51.446;-2.606;2023-05-10T05:06:12;17;13;
69350;PMS7003;57106;51.446;-2.606;2023-05-10T05:08:37;13;13;
69350;PMS7003;57106;51.446;-2.606;2023-05-10T05:11:03;14;14;
69350;PMS7003;57106;51.446;-2.606;2023-05-10T05:13:28;22;16;
69350;PMS7003;57106;51.446;-2.606;2023-05-10T05:15:54;16;12;
69350;PMS7003;57106;51.446;-2.606;2023-05-10T05:18:21;16;13;
69350;PMS7003;57106;51.446;-2.606;2023-05-10T05:20:45;13;11;
69350;PMS7003;57106;51.446;-2.606;2023-05-10T05:23:10;15;11;
69350;PMS7003;57106;51.446;-2.606;2023-05-10T05:25:36;14;14;
69350;PMS7003;57106;51.446;-2.606;2023-05-10T05:28:02;16;14;
69350;PMS7003;57106;51.446;-2.606;2023-05-10T05:30:27;22;16;
69350;PMS7003;57106;51.446;-2.606;2023-05-10T05:32:52;13;13;
69350;PMS7003;57106;51.446;-2.606;2023-05-10T05:40:08;13;11;
69350;PMS7003;57106;51.446;-2.606;2023-05-10T05:42:33;15;15;
69350;PMS7003;57106;51.446;-2.606;2023-05-10T05:44:58;15;11;
69350;PMS7003;57106;51.446;-2.606;2023-05-10T05:47:24;12;11;
69350;PMS7003;57106;51.446;-2.606;2023-05-10T05:49:49;15;11;
69350;PMS7003;57106;51.446;-2.606;2023-05-10T05:52:14;13;13;
69350;PMS7003;57106;51.446;-2.606;2023-05-10T05:54:40;11;10;
69350;PMS7003;57106;51.446;-2.606;2023-05-10T05:57:06;8;7;
69350;PMS7003;57106;51.446;-2.606;2023-05-10T05:59:31;15;10;
69350;PMS7003;57106;51.446;-2.606;2023-05-10T06:01:57;6;6;
69350;PMS7003;57106;51.446;-2.606;2023-05-10T06:06:47;7;5;
69350;PMS7003;57106;51.446;-2.606;2023-05-10T06:09:13;7;7;
69350;PMS7003;57106;51.446;-2.606;2023-05-10T06:14:04;6;5;
69350;PMS7003;57106;51.446;-2.606;2023-05-10T06:40:44;3;3;
69350;PMS7003;57106;51.446;-2.606;2023-05-10T06:43:10;7;6;
69350;PMS7003;57106;51.446;-2.606;2023-05-10T06:45:35;6;4;
69350;PMS7003;57106;51.446;-2.606;2023-05-10T06:48:00;6;4;
69350;PMS7003;57106;51.446;-2.606;2023-05-10T06:50:26;6;4;
69350;PMS7003;57106;51.446;-2.606;2023-05-10T06:52:51;3;3;
69350;PMS7003;57106;51.446;-2.606;2023-05-10T06:55:17;4;2;
69350;PMS7003;57106;51.446;-2.606;2023-05-10T06:57:42;4;3;
69350;PMS7003;57106;51.446;-2.606;2023-05-10T07:00:08;6;5;
69350;PMS7003;57106;51.446;-2.606;2023-05-10T07:02:33;6;3;
69350;PMS7003;57106;51.446;-2.606;2023-05-10T07:04:58;5;4;
69350;PMS7003;57106;51.446;-2.606;2023-05-10T07:07:24;4;4;
69350;PMS7003;57106;51.446;-2.606;2023-05-10T07:09:49;5;3;
69350;PMS7003;57106;51.446;-2.606;2023-05-10T07:12:15;4;4;
69350;PMS7003;57106;51.446;-2.606;2023-05-10T07:14:40;5;5;
69350;PMS7003;57106;51.446;-2.606;2023-05-10T07:17:06;4;3;
69350;PMS7003;57106;51.446;-2.606;2023-05-10T07:19:31;4;4;
69350;PMS7003;57106;51.446;-2.606;2023-05-10T07:21:56;6;4;
69350;PMS7003;57106;51.446;-2.606;2023-05-10T07:24:22;4;3;
69350;PMS7003;57106;51.446;-2.606;2023-05-10T07:26:47;5;5;
69350;PMS7003;57106;51.446;-2.606;2023-05-10T07:29:13;5;3;
69350;PMS7003;57106;51.446;-2.606;2023-05-10T07:31:38;4;3;
69350;PMS7003;57106;51.446;-2.606;2023-05-10T07:34:04;5;3;
69350;PMS7003;57106;51.446;-2.606;2023-05-10T07:36:29;6;4;
69350;PMS7003;57106;51.446;-2.606;2023-05-10T07:38:57;2;2;
69350;PMS7003;57106;51.446;-2.606;2023-05-10T07:41:20;3;2;
69350;PMS7003;57106;51.446;-2.606;2023-05-10T07:43:45;3;3;
69350;PMS7003;57106;51.446;-2.606;2023-05-10T07:46:11;4;2;
69350;PMS7003;57106;51.446;-2.606;2023-05-10T07:48:36;7;5;
69350;PMS7003;57106;51.446;-2.606;2023-05-10T07:51:03;4;4;
69350;PMS7003;57106;51.446;-2.606;2023-05-10T07:53:27;7;4;
69350;PMS7003;57106;51.446;-2.606;2023-05-10T07:55:54;7;5;
69350;PMS7003;57106;51.446;-2.606;2023-05-10T07:58:18;3;2;
69350;PMS7003;57106;51.446;-2.606;2023-05-10T08:00:44;3;3;
69350;PMS7003;57106;51.446;-2.606;2023-05-10T08:03:09;5;4;
69350;PMS7003;57106;51.446;-2.606;2023-05-10T08:05:34;2;2;
69350;PMS7003;57106;51.446;-2.606;2023-05-10T08:08:00;3;3;
69350;PMS7003;57106;51.446;-2.606;2023-05-10T08:10:25;4;4;
69350;PMS7003;57106;51.446;-2.606;2023-05-10T08:12:51;5;4;
69350;PMS7003;57106;51.446;-2.606;2023-05-10T08:15:16;3;3;
69350;PMS7003;57106;51.446;-2.606;2023-05-10T08:17:42;5;4;
69350;PMS7003;57106;51.446;-2.606;2023-05-10T08:20:07;6;5;
69350;PMS7003;57106;51.446;-2.606;2023-05-10T08:22:33;5;4;
69350;PMS7003;57106;51.446;-2.606;2023-05-10T08:24:58;4;2;
69350;PMS7003;57106;51.446;-2.606;2023-05-10T08:27:23;7;7;
69350;PMS7003;57106;51.446;-2.606;2023-05-10T08:29:49;8;5;
69350;PMS7003;57106;51.446;-2.606;2023-05-10T08:32:15;5;3;
69350;PMS7003;57106;51.446;-2.606;2023-05-10T08:34:40;5;3;
69350;PMS7003;57106;51.446;-2.606;2023-05-10T08:37:05;3;2;
69350;PMS7003;57106;51.446;-2.606;2023-05-10T08:39:33;5;5;
69350;PMS7003;57106;51.446;-2.606;2023-05-10T08:41:57;11;7;
69350;PMS7003;57106;51.446;-2.606;2023-05-10T08:44:21;4;3;
69350;PMS7003;57106;51.446;-2.606;2023-05-10T08:46:47;6;5;
69350;PMS7003;57106;51.446;-2.606;2023-05-10T08:49:13;9;5;
69350;PMS7003;57106;51.446;-2.606;2023-05-10T08:51:39;6;4;
69350;PMS7003;57106;51.446;-2.606;2023-05-10T08:54:03;5;5;
69350;PMS7003;57106;51.446;-2.606;2023-05-10T08:56:29;7;6;
69350;PMS7003;57106;51.446;-2.606;2023-05-10T08:58:54;4;4;
69350;PMS7003;57106;51.446;-2.606;2023-05-10T09:01:19;7;6;
69350;PMS7003;57106;51.446;-2.606;2023-05-10T09:03:46;7;7;
69350;PMS7003;57106;51.446;-2.606;2023-05-10T09:06:10;7;6;
69350;PMS7003;57106;51.446;-2.606;2023-05-10T09:15:52;7;6;
69350;PMS7003;57106;51.446;-2.606;2023-05-10T09:18:18;6;6;
69350;PMS7003;57106;51.446;-2.606;2023-05-10T09:20:44;7;5;
69350;PMS7003;57106;51.446;-2.606;2023-05-10T09:23:09;10;4;
69350;PMS7003;57106;51.446;-2.606;2023-05-10T09:25:35;6;3;
69350;PMS7003;57106;51.446;-2.606;2023-05-10T09:28:00;6;5;
69350;PMS7003;57106;51.446;-2.606;2023-05-10T09:30:26;8;6;
69350;PMS7003;57106;51.446;-2.606;2023-05-10T09:32:51;9;6;
69350;PMS7003;57106;51.446;-2.606;2023-05-10T09:35:18;6;4;
69350;PMS7003;57106;51.446;-2.606;2023-05-10T09:37:43;6;5;
69350;PMS7003;57106;51.446;-2.606;2023-05-10T09:40:11;4;3;
69350;PMS7003;57106;51.446;-2.606;2023-05-10T09:42:33;8;5;
69350;PMS7003;57106;51.446;-2.606;2023-05-10T09:45:00;6;4;
69350;PMS7003;57106;51.446;-2.606;2023-05-10T09:47:24;7;5;
69350;PMS7003;57106;51.446;-2.606;2023-05-10T09:49:49;7;3;
69350;PMS7003;57106;51.446;-2.606;2023-05-10T09:52:15;5;5;
69350;PMS7003;57106;51.446;-2.606;2023-05-10T09:54:42;6;5;
69350;PMS7003;57106;51.446;-2.606;2023-05-10T09:57:06;4;2;
69350;PMS7003;57106;51.446;-2.606;2023-05-10T10:21:20;4;3;
69350;PMS7003;57106;51.446;-2.606;2023-05-10T10:55:17;3;3;
69350;PMS7003;57106;51.446;-2.606;2023-05-10T11:14:39;2;2;
69350;PMS7003;57106;51.446;-2.606;2023-05-10T11:36:28;3;2;
69350;PMS7003;57106;51.446;-2.606;2023-05-10T11:41:19;3;3;
69350;PMS7003;57106;51.446;-2.606;2023-05-10T11:51:00;3;2;
69350;PMS7003;57106;51.446;-2.606;2023-05-10T11:55:51;1;1;
69350;PMS7003;57106;51.446;-2.606;2023-05-10T12:00:42;7;5;
69350;PMS7003;57106;51.446;-2.606;2023-05-10T12:05:33;5;0;
69350;PMS7003;57106;51.446;-2.606;2023-05-10T12:10:25;1;1;
69350;PMS7003;57106;51.446;-2.606;2023-05-10T12:12:51;3;0;
69350;PMS7003;57106;51.446;-2.606;2023-05-10T12:15:17;2;1;
69350;PMS7003;57106;51.446;-2.606;2023-05-10T12:17:40;3;1;
69350;PMS7003;57106;51.446;-2.606;2023-05-10T12:22:33;3;2;
69350;PMS7003;57106;51.446;-2.606;2023-05-10T12:24:56;3;1;
69350;PMS7003;57106;51.446;-2.606;2023-05-10T12:29:47;2;2;
69350;PMS7003;57106;51.446;-2.606;2023-05-10T13:01:18;4;2;
69350;PMS7003;57106;51.446;-2.606;2023-05-10T13:03:42;2;2;
69350;PMS7003;57106;51.446;-2.606;2023-05-10T13:06:08;5;3;
69350;PMS7003;57106;51.446;-2.606;2023-05-10T13:08:33;4;2;
69350;PMS7003;57106;51.446;-2.606;2023-05-10T13:10:59;1;1;
69350;PMS7003;57106;51.446;-2.606;2023-05-10T13:13:24;0;0;
69350;PMS7003;57106;51.446;-2.606;2023-05-10T13:15:49;2;2;
69350;PMS7003;57106;51.446;-2.606;2023-05-10T13:18:15;1;0;
69350;PMS7003;57106;51.446;-2.606;2023-05-10T13:20:40;2;0;
69350;PMS7003;57106;51.446;-2.606;2023-05-10T13:23:06;3;1;
69350;PMS7003;57106;51.446;-2.606;2023-05-10T13:25:31;4;2;
69350;PMS7003;57106;51.446;-2.606;2023-05-10T13:27:56;2;1;
69350;PMS7003;57106;51.446;-2.606;2023-05-10T13:30:22;0;0;
69350;PMS7003;57106;51.446;-2.606;2023-05-10T13:32:47;0;0;
69350;PMS7003;57106;51.446;-2.606;2023-05-10T13:35:13;0;0;
69350;PMS7003;57106;51.446;-2.606;2023-05-10T13:37:38;1;0;
69350;PMS7003;57106;51.446;-2.606;2023-05-10T13:40:04;1;1;
69350;PMS7003;57106;51.446;-2.606;2023-05-10T13:42:29;0;0;
69350;PMS7003;57106;51.446;-2.606;2023-05-10T13:44:54;4;1;
69350;PMS7003;57106;51.446;-2.606;2023-05-10T13:47:19;1;0;
69350;PMS7003;57106;51.446;-2.606;2023-05-10T13:49:45;4;1;
69350;PMS7003;57106;51.446;-2.606;2023-05-10T13:52:10;0;0;
69350;PMS7003;57106;51.446;-2.606;2023-05-10T13:54:36;0;0;
69350;PMS7003;57106;51.446;-2.606;2023-05-10T13:57:01;0;0;
69350;PMS7003;57106;51.446;-2.606;2023-05-10T13:59:31;2;0;
69350;PMS7003;57106;51.446;-2.606;2023-05-10T14:01:52;0;0;
69350;PMS7003;57106;51.446;-2.606;2023-05-10T14:04:22;1;0;
69350;PMS7003;57106;51.446;-2.606;2023-05-10T14:06:42;0;0;
69350;PMS7003;57106;51.446;-2.606;2023-05-10T14:09:08;5;0;
69350;PMS7003;57106;51.446;-2.606;2023-05-10T14:11:33;0;0;
69350;PMS7003;57106;51.446;-2.606;2023-05-10T14:13:59;1;1;
69350;PMS7003;57106;51.446;-2.606;2023-05-10T14:16:24;1;0;
69350;PMS7003;57106;51.446;-2.606;2023-05-10T14:18:49;0;0;
69350;PMS7003;57106;51.446;-2.606;2023-05-10T14:21:15;0;0;
69350;PMS7003;57106;51.446;-2.606;2023-05-10T14:23:40;0;0;
69350;PMS7003;57106;51.446;-2.606;2023-05-10T14:26:06;0;0;
69350;PMS7003;57106;51.446;-2.606;2023-05-10T14:28:31;2;0;
69350;PMS7003;57106;51.446;-2.606;2023-05-10T14:30:56;0;0;
69350;PMS7003;57106;51.446;-2.606;2023-05-10T14:33:22;0;0;
69350;PMS7003;57106;51.446;-2.606;2023-05-10T14:35:47;0;0;
69350;PMS7003;57106;51.446;-2.606;2023-05-10T14:38:13;2;0;
69350;PMS7003;57106;51.446;-2.606;2023-05-10T14:40:38;0;0;
69350;PMS7003;57106;51.446;-2.606;2023-05-10T14:43:03;1;1;
69350;PMS7003;57106;51.446;-2.606;2023-05-10T14:45:29;0;0;
69350;PMS7003;57106;51.446;-2.606;2023-05-10T14:47:54;1;0;
69350;PMS7003;57106;51.446;-2.606;2023-05-10T14:50:20;0;0;
69350;PMS7003;57106;51.446;-2.606;2023-05-10T14:52:45;0;0;
69350;PMS7003;57106;51.446;-2.606;2023-05-10T14:55:10;0;0;
69350;PMS7003;57106;51.446;-2.606;2023-05-10T14:57:35;1;0;
69350;PMS7003;57106;51.446;-2.606;2023-05-10T15:00:01;1;0;
69350;PMS7003;57106;51.446;-2.606;2023-05-10T15:04:52;3;0;
69350;PMS7003;57106;51.446;-2.606;2023-05-10T15:24:15;0;0;
69350;PMS7003;57106;51.446;-2.606;2023-05-10T15:26:40;1;0;
69350;PMS7003;57106;51.446;-2.606;2023-05-10T15:29:05;0;0;
69350;PMS7003;57106;51.446;-2.606;2023-05-10T15:31:31;6;1;
69350;PMS7003;57106;51.446;-2.606;2023-05-10T15:33:57;0;0;
69350;PMS7003;57106;51.446;-2.606;2023-05-10T15:36:22;0;0;
69350;PMS7003;57106;51.446;-2.606;2023-05-10T15:38:47;0;0;
69350;PMS7003;57106;51.446;-2.606;2023-05-10T15:41:13;0;0;
69350;PMS7003;57106;51.446;-2.606;2023-05-10T15:43:38;0;0;
69350;PMS7003;57106;51.446;-2.606;2023-05-10T15:46:03;0;0;
69350;PMS7003;57106;51.446;-2.606;2023-05-10T15:48:29;0;0;
69350;PMS7003;57106;51.446;-2.606;2023-05-10T15:50:56;0;0;
69350;PMS7003;57106;51.446;-2.606;2023-05-10T15:53:19;0;0;
69350;PMS7003;57106;51.446;-2.606;2023-05-10T15:55:45;2;0;
69350;PMS7003;57106;51.446;-2.606;2023-05-10T15:58:10;0;0;
69350;PMS7003;57106;51.446;-2.606;2023-05-10T16:00:36;0;0;
69350;PMS7003;57106;51.446;-2.606;2023-05-10T16:03:01;1;0;
69350;PMS7003;57106;51.446;-2.606;2023-05-10T16:05:26;0;0;
69350;PMS7003;57106;51.446;-2.606;2023-05-10T16:07:52;2;1;
69350;PMS7003;57106;51.446;-2.606;2023-05-10T16:10:17;0;0;
69350;PMS7003;57106;51.446;-2.606;2023-05-10T16:12:42;0;0;
69350;PMS7003;57106;51.446;-2.606;2023-05-10T16:15:08;0;0;
69350;PMS7003;57106;51.446;-2.606;2023-05-10T16:17:33;0;0;
69350;PMS7003;57106;51.446;-2.606;2023-05-10T16:19:59;0;0;
69350;PMS7003;57106;51.446;-2.606;2023-05-10T16:22:24;0;0;
69350;PMS7003;57106;51.446;-2.606;2023-05-10T16:24:50;1;1;
69350;PMS7003;57106;51.446;-2.606;2023-05-10T16:27:15;1;0;
69350;PMS7003;57106;51.446;-2.606;2023-05-10T16:29:40;0;0;
69350;PMS7003;57106;51.446;-2.606;2023-05-10T16:32:06;0;0;
69350;PMS7003;57106;51.446;-2.606;2023-05-10T16:34:31;0;0;
69350;PMS7003;57106;51.446;-2.606;2023-05-10T16:36:56;0;0;
69350;PMS7003;57106;51.446;-2.606;2023-05-10T16:39:22;1;0;
69350;PMS7003;57106;51.446;-2.606;2023-05-10T16:41:47;1;1;
69350;PMS7003;57106;51.446;-2.606;2023-05-10T16:44:13;3;0;
69350;PMS7003;57106;51.446;-2.606;2023-05-10T16:46:38;0;0;
69350;PMS7003;57106;51.446;-2.606;2023-05-10T16:49:05;1;1;
69350;PMS7003;57106;51.446;-2.606;2023-05-10T16:51:29;0;0;
69350;PMS7003;57106;51.446;-2.606;2023-05-10T16:53:54;0;0;
69350;PMS7003;57106;51.446;-2.606;2023-05-10T16:56:20;0;0;
69350;PMS7003;57106;51.446;-2.606;2023-05-10T16:58:45;0;0;
69350;PMS7003;57106;51.446;-2.606;2023-05-10T17:01:10;0;0;
69350;PMS7003;57106;51.446;-2.606;2023-05-10T17:03:36;1;1;
69350;PMS7003;57106;51.446;-2.606;2023-05-10T17:06:01;0;0;
69350;PMS7003;57106;51.446;-2.606;2023-05-10T17:08:27;0;0;
69350;PMS7003;57106;51.446;-2.606;2023-05-10T17:10:52;1;1;
69350;PMS7003;57106;51.446;-2.606;2023-05-10T17:13:17;2;0;
69350;PMS7003;57106;51.446;-2.606;2023-05-10T17:15:44;0;0;
69350;PMS7003;57106;51.446;-2.606;2023-05-10T17:18:08;1;1;
69350;PMS7003;57106;51.446;-2.606;2023-05-10T17:20:34;0;0;
69350;PMS7003;57106;51.446;-2.606;2023-05-10T17:22:59;1;0;
69350;PMS7003;57106;51.446;-2.606;2023-05-10T17:25:25;0;0;
69350;PMS7003;57106;51.446;-2.606;2023-05-10T17:27:50;0;0;
69350;PMS7003;57106;51.446;-2.606;2023-05-10T17:30:15;2;1;
69350;PMS7003;57106;51.446;-2.606;2023-05-10T17:32:41;0;0;
69350;PMS7003;57106;51.446;-2.606;2023-05-10T17:35:06;3;0;
69350;PMS7003;57106;51.446;-2.606;2023-05-10T17:37:32;1;1;
69350;PMS7003;57106;51.446;-2.606;2023-05-10T17:39:58;1;1;
69350;PMS7003;57106;51.446;-2.606;2023-05-10T17:42:22;0;0;
69350;PMS7003;57106;51.446;-2.606;2023-05-10T17:44:48;0;0;
69350;PMS7003;57106;51.446;-2.606;2023-05-10T17:47:13;1;0;
69350;PMS7003;57106;51.446;-2.606;2023-05-10T17:49:39;0;0;
69350;PMS7003;57106;51.446;-2.606;2023-05-10T17:54:29;1;0;
69350;PMS7003;57106;51.446;-2.606;2023-05-10T17:56:55;1;1;
69350;PMS7003;57106;51.446;-2.606;2023-05-10T17:59:20;2;1;
69350;PMS7003;57106;51.446;-2.606;2023-05-10T18:01:46;1;1;
69350;PMS7003;57106;51.446;-2.606;2023-05-10T18:04:11;3;0;
69350;PMS7003;57106;51.446;-2.606;2023-05-10T18:06:37;3;1;
69350;PMS7003;57106;51.446;-2.606;2023-05-10T18:09:02;0;0;
69350;PMS7003;57106;51.446;-2.606;2023-05-10T18:11:27;0;0;
69350;PMS7003;57106;51.446;-2.606;2023-05-10T18:13:53;0;0;
69350;PMS7003;57106;51.446;-2.606;2023-05-10T18:16:18;0;0;
69350;PMS7003;57106;51.446;-2.606;2023-05-10T18:18:44;0;0;
69350;PMS7003;57106;51.446;-2.606;2023-05-10T18:21:09;0;0;
69350;PMS7003;57106;51.446;-2.606;2023-05-10T18:23:35;2;0;
69350;PMS7003;57106;51.446;-2.606;2023-05-10T18:26:00;0;0;
69350;PMS7003;57106;51.446;-2.606;2023-05-10T18:28:26;0;0;
69350;PMS7003;57106;51.446;-2.606;2023-05-10T18:30:51;2;1;
69350;PMS7003;57106;51.446;-2.606;2023-05-10T18:33:16;0;0;
69350;PMS7003;57106;51.446;-2.606;2023-05-10T18:35:42;0;0;
69350;PMS7003;57106;51.446;-2.606;2023-05-10T19:12:04;3;1;
69350;PMS7003;57106;51.446;-2.606;2023-05-10T19:14:30;3;1;
69350;PMS7003;57106;51.446;-2.606;2023-05-10T19:16:55;1;1;
69350;PMS7003;57106;51.446;-2.606;2023-05-10T19:19:20;4;1;
69350;PMS7003;57106;51.446;-2.606;2023-05-10T19:21:46;1;0;
69350;PMS7003;57106;51.446;-2.606;2023-05-10T19:24:11;1;1;
69350;PMS7003;57106;51.446;-2.606;2023-05-10T19:26:37;1;0;
69350;PMS7003;57106;51.446;-2.606;2023-05-10T19:31:28;1;1;
69350;PMS7003;57106;51.446;-2.606;2023-05-10T19:33:54;0;0;
69350;PMS7003;57106;51.446;-2.606;2023-05-10T19:36:19;0;0;
69350;PMS7003;57106;51.446;-2.606;2023-05-10T19:38:44;1;0;
69350;PMS7003;57106;51.446;-2.606;2023-05-10T19:41:10;2;1;
69350;PMS7003;57106;51.446;-2.606;2023-05-10T19:43:35;1;1;
69350;PMS7003;57106;51.446;-2.606;2023-05-10T19:46:01;1;1;
69350;PMS7003;57106;51.446;-2.606;2023-05-10T19:55:43;1;1;
69350;PMS7003;57106;51.446;-2.606;2023-05-10T19:58:08;4;2;
69350;PMS7003;57106;51.446;-2.606;2023-05-10T20:00:35;1;0;
69350;PMS7003;57106;51.446;-2.606;2023-05-10T20:02:59;2;2;
69350;PMS7003;57106;51.446;-2.606;2023-05-10T20:15:08;2;2;
69350;PMS7003;57106;51.446;-2.606;2023-05-10T20:17:33;3;2;
69350;PMS7003;57106;51.446;-2.606;2023-05-10T20:19:58;3;2;
69350;PMS7003;57106;51.446;-2.606;2023-05-10T20:22:23;4;1;
69350;PMS7003;57106;51.446;-2.606;2023-05-10T20:24:49;4;2;
69350;PMS7003;57106;51.446;-2.606;2023-05-10T20:27:14;4;2;
69350;PMS7003;57106;51.446;-2.606;2023-05-10T20:29:40;3;3;
69350;PMS7003;57106;51.446;-2.606;2023-05-10T20:32:05;2;1;
69350;PMS7003;57106;51.446;-2.606;2023-05-10T20:34:32;2;1;
69350;PMS7003;57106;51.446;-2.606;2023-05-10T20:36:57;2;2;
69350;PMS7003;57106;51.446;-2.606;2023-05-10T20:39:22;2;1;
69350;PMS7003;57106;51.446;-2.606;2023-05-10T20:44:13;2;2;
69350;PMS7003;57106;51.446;-2.606;2023-05-10T20:46:40;3;0;
69350;PMS7003;57106;51.446;-2.606;2023-05-10T20:56:21;2;2;
69350;PMS7003;57106;51.446;-2.606;2023-05-10T21:01:11;6;2;
69350;PMS7003;57106;51.446;-2.606;2023-05-10T22:33:22;3;3;
69350;PMS7003;57106;51.446;-2.606;2023-05-10T23:17:03;5;2;
69350;PMS7003;57106;51.446;-2.606;2023-05-10T23:24:22;5;3;
69350;PMS7003;57106;51.446;-2.606;2023-05-10T23:31:32;3;3;
69350;PMS7003;57106;51.446;-2.606;2023-05-10T23:33:58;8;3;
69350;PMS7003;57106;51.446;-2.606;2023-05-10T23:36:23;6;4;